sensor_id;sensor_type;location;lat;lon;timestamp;pressure;altitude;pressure_sealevel;temperature;humidity
74427;BME280;62859;53.906;27.430;2023-05-01T00:01:49;1009.1;;;10.3;37.6
74427;BME280;62859;53.906;27.430;2023-05-01T00:07:01;1009.1;;;10.3;37.6
74427;BME280;62859;53.906;27.430;2023-05-01T00:11:13;1009.2;;;10.2;37.6
74427;BME280;62859;53.906;27.430;2023-05-01T00:16:59;1009.2;;;10.1;37.7
74427;BME280;62859;53.906;27.430;2023-05-01T00:22:01;1009.3;;;10;37.9
74427;BME280;62859;53.906;27.430;2023-05-01T00:26:49;1009.3;;;9.9;38
74427;BME280;62859;53.906;27.430;2023-05-01T00:31:29;1009.4;;;9.9;38.2
74427;BME280;62859;53.906;27.430;2023-05-01T00:36:51;1009.5;;;9.8;38.2
74427;BME280;62859;53.906;27.430;2023-05-01T00:41:45;1009.5;;;9.7;38.4
74427;BME280;62859;53.906;27.430;2023-05-01T00:46:59;1009.6;;;9.7;38.4
74427;BME280;62859;53.906;27.430;2023-05-01T00:51:25;1009.6;;;9.7;38.4
74427;BME280;62859;53.906;27.430;2023-05-01T00:56:59;1009.6;;;9.6;38.6
74427;BME280;62859;53.906;27.430;2023-05-01T01:01:39;1009.6;;;9.6;38.7
74427;BME280;62859;53.906;27.430;2023-05-01T01:06:38;1009.7;;;9.5;39
74427;BME280;62859;53.906;27.430;2023-05-01T01:11:42;1009.7;;;9.5;39.1
74427;BME280;62859;53.906;27.430;2023-05-01T01:17:01;1009.7;;;9.5;39.3
74427;BME280;62859;53.906;27.430;2023-05-01T01:21:14;1009.7;;;9.5;39.6
74427;BME280;62859;53.906;27.430;2023-05-01T01:26:23;1009.8;;;9.5;39.6
74427;BME280;62859;53.906;27.430;2023-05-01T01:31:59;1009.8;;;9.4;39.7
74427;BME280;62859;53.906;27.430;2023-05-01T01:36:38;1009.8;;;9.4;39.7
74427;BME280;62859;53.906;27.430;2023-05-01T01:41:22;1009.9;;;9.4;39.7
74427;BME280;62859;53.906;27.430;2023-05-01T01:46:36;1010;;;9.3;39.9
74427;BME280;62859;53.906;27.430;2023-05-01T01:51:55;1010;;;9.3;40
74427;BME280;62859;53.906;27.430;2023-05-01T01:56:41;1010.1;;;9.2;40.1
74427;BME280;62859;53.906;27.430;2023-05-01T02:01:59;1010.1;;;9.2;40.4
74427;BME280;62859;53.906;27.430;2023-05-01T02:06:25;1010.2;;;9.2;40.6
74427;BME280;62859;53.906;27.430;2023-05-01T02:11:25;1010.2;;;9.2;40.7
74427;BME280;62859;53.906;27.430;2023-05-01T02:16:25;1010.3;;;9.1;40.8
74427;BME280;62859;53.906;27.430;2023-05-01T02:21:13;1010.3;;;9.1;40.8
74427;BME280;62859;53.906;27.430;2023-05-01T02:26:29;1010.4;;;9.1;41
74427;BME280;62859;53.906;27.430;2023-05-01T02:31:13;1010.4;;;9;41.1
74427;BME280;62859;53.906;27.430;2023-05-01T02:36:57;1010.5;;;9.1;41
74427;BME280;62859;53.906;27.430;2023-05-01T02:41:55;1010.5;;;8.9;41.2
74427;BME280;62859;53.906;27.430;2023-05-01T02:46:13;1010.6;;;8.8;41.7
74427;BME280;62859;53.906;27.430;2023-05-01T02:51:57;1010.6;;;8.7;41.9
74427;BME280;62859;53.906;27.430;2023-05-01T02:56:13;1010.7;;;8.7;41.9
74427;BME280;62859;53.906;27.430;2023-05-01T03:01:23;1010.8;;;8.6;42.1
74427;BME280;62859;53.906;27.430;2023-05-01T03:06:43;1010.8;;;8.6;42.1
74427;BME280;62859;53.906;27.430;2023-05-01T03:11:41;1010.8;;;8.6;42
74427;BME280;62859;53.906;27.430;2023-05-01T03:16:23;1010.9;;;8.6;42.2
74427;BME280;62859;53.906;27.430;2023-05-01T03:21:57;1010.9;;;8.5;42.5
74427;BME280;62859;53.906;27.430;2023-05-01T03:26:49;1011;;;8.5;42.7
74427;BME280;62859;53.906;27.430;2023-05-01T03:31:51;1011;;;8.6;42.7
74427;BME280;62859;53.906;27.430;2023-05-01T03:36:27;1011.1;;;8.5;42.6
74427;BME280;62859;53.906;27.430;2023-05-01T03:41:51;1011.1;;;8.5;42.8
74427;BME280;62859;53.906;27.430;2023-05-01T03:46:39;1011.1;;;8.6;42.7
74427;BME280;62859;53.906;27.430;2023-05-01T03:51:41;1011.2;;;8.6;42.7
74427;BME280;62859;53.906;27.430;2023-05-01T03:56:13;1011.3;;;8.7;42.7
74427;BME280;62859;53.906;27.430;2023-05-01T04:01:59;1011.3;;;8.8;42.6
74427;BME280;62859;53.906;27.430;2023-05-01T04:06:45;1011.3;;;8.8;42.8
74427;BME280;62859;53.906;27.430;2023-05-01T04:11:13;1011.4;;;8.8;42.9
74427;BME280;62859;53.906;27.430;2023-05-01T04:16:23;1011.5;;;8.9;42.8
74427;BME280;62859;53.906;27.430;2023-05-01T04:21:25;1011.5;;;8.9;42.9
74427;BME280;62859;53.906;27.430;2023-05-01T04:26:13;1011.6;;;8.8;43.2
74427;BME280;62859;53.906;27.430;2023-05-01T04:31:15;1011.6;;;8.8;43.3
74427;BME280;62859;53.906;27.430;2023-05-01T04:36:51;1011.6;;;8.8;43.4
74427;BME280;62859;53.906;27.430;2023-05-01T04:41:25;1011.6;;;8.8;43.6
74427;BME280;62859;53.906;27.430;2023-05-01T04:46:57;1011.7;;;8.8;43.6
74427;BME280;62859;53.906;27.430;2023-05-01T04:51:33;1011.7;;;8.9;43.5
74427;BME280;62859;53.906;27.430;2023-05-01T04:56:57;1011.8;;;8.9;43.3
74427;BME280;62859;53.906;27.430;2023-05-01T05:01:41;1011.8;;;9;43.3
74427;BME280;62859;53.906;27.430;2023-05-01T05:06:13;1011.8;;;9;43.1
74427;BME280;62859;53.906;27.430;2023-05-01T05:11:49;1011.9;;;9.1;42.4
74427;BME280;62859;53.906;27.430;2023-05-01T05:16:45;1011.9;;;9.1;42.4
74427;BME280;62859;53.906;27.430;2023-05-01T05:21:13;1011.9;;;9.2;41.6
74427;BME280;62859;53.906;27.430;2023-05-01T05:26:13;1012;;;9.2;41.8
74427;BME280;62859;53.906;27.430;2023-05-01T05:31:31;1012;;;9.2;41.4
74427;BME280;62859;53.906;27.430;2023-05-01T05:36:13;1012;;;9.3;41.4
74427;BME280;62859;53.906;27.430;2023-05-01T05:41:57;1012;;;9.4;40.9
74427;BME280;62859;53.906;27.430;2023-05-01T05:46:15;1012.1;;;9.4;40.6
74427;BME280;62859;53.906;27.430;2023-05-01T05:51:13;1012.1;;;9.5;40.1
74427;BME280;62859;53.906;27.430;2023-05-01T05:56:59;1012.2;;;9.6;39.5
74427;BME280;62859;53.906;27.430;2023-05-01T06:01:25;1012.2;;;9.5;39.3
74427;BME280;62859;53.906;27.430;2023-05-01T06:06:13;1012.3;;;9.6;39.4
74427;BME280;62859;53.906;27.430;2023-05-01T06:11:45;1012.3;;;9.7;39.4
74427;BME280;62859;53.906;27.430;2023-05-01T06:16:59;1012.3;;;9.9;39.2
74427;BME280;62859;53.906;27.430;2023-05-01T06:21:33;1012.4;;;10;38.3
74427;BME280;62859;53.906;27.430;2023-05-01T06:26:57;1012.4;;;10;38
74427;BME280;62859;53.906;27.430;2023-05-01T06:31:57;1012.5;;;10.1;37.9
74427;BME280;62859;53.906;27.430;2023-05-01T06:36:51;1012.5;;;10.1;38
74427;BME280;62859;53.906;27.430;2023-05-01T06:41:32;1012.5;;;10.1;38
74427;BME280;62859;53.906;27.430;2023-05-01T06:46:51;1012.5;;;10.2;38.1
74427;BME280;62859;53.906;27.430;2023-05-01T06:51:47;1012.6;;;10.3;37.9
74427;BME280;62859;53.906;27.430;2023-05-01T06:56:43;1012.6;;;10.5;37.7
74427;BME280;62859;53.906;27.430;2023-05-01T07:01:57;1012.7;;;10.6;37.2
74427;BME280;62859;53.906;27.430;2023-05-01T07:06:57;1012.7;;;10.7;36.3
74427;BME280;62859;53.906;27.430;2023-05-01T07:11:47;1012.8;;;10.6;35.9
74427;BME280;62859;53.906;27.430;2023-05-01T07:16:13;1012.8;;;10.7;35.7
74427;BME280;62859;53.906;27.430;2023-05-01T07:21:37;1012.8;;;10.7;35.7
74427;BME280;62859;53.906;27.430;2023-05-01T07:26:35;1012.8;;;10.8;36.1
74427;BME280;62859;53.906;27.430;2023-05-01T07:31:31;1012.9;;;10.9;35.7
74427;BME280;62859;53.906;27.430;2023-05-01T07:36:49;1012.9;;;11;35.6
74427;BME280;62859;53.906;27.430;2023-05-01T07:41:49;1012.9;;;11.1;34.6
74427;BME280;62859;53.906;27.430;2023-05-01T07:46:25;1012.9;;;11.2;34.2
74427;BME280;62859;53.906;27.430;2023-05-01T07:51:59;1012.9;;;11.4;34.4
74427;BME280;62859;53.906;27.430;2023-05-01T07:56:35;1013;;;11.6;34.2
74427;BME280;62859;53.906;27.430;2023-05-01T08:01:39;1012.9;;;11.9;33.3
74427;BME280;62859;53.906;27.430;2023-05-01T08:06:43;1012.9;;;12.3;32.2
74427;BME280;62859;53.906;27.430;2023-05-01T08:11:59;1013;;;12.8;32.1
74427;BME280;62859;53.906;27.430;2023-05-01T08:16:37;1012.9;;;13.5;31.6
74427;BME280;62859;53.906;27.430;2023-05-01T08:21:39;1013;;;14.3;29.4
74427;BME280;62859;53.906;27.430;2023-05-01T08:26:43;1012.9;;;15;28.1
74427;BME280;62859;53.906;27.430;2023-05-01T08:31:51;1012.9;;;15.6;26.8
74427;BME280;62859;53.906;27.430;2023-05-01T08:36:13;1012.9;;;16.1;26.1
74427;BME280;62859;53.906;27.430;2023-05-01T08:41:14;1012.9;;;16.6;25.7
74427;BME280;62859;53.906;27.430;2023-05-01T08:47:03;1012.8;;;17.1;25
74427;BME280;62859;53.906;27.430;2023-05-01T08:52:00;1012.9;;;17.5;24.4
74427;BME280;62859;53.906;27.430;2023-05-01T08:56:13;1012.9;;;18;24.7
74427;BME280;62859;53.906;27.430;2023-05-01T09:02:00;1012.9;;;18.3;24.1
74427;BME280;62859;53.906;27.430;2023-05-01T09:06:35;1012.9;;;18.8;22.9
74427;BME280;62859;53.906;27.430;2023-05-01T09:11:25;1012.9;;;19;22.7
74427;BME280;62859;53.906;27.430;2023-05-01T09:16:47;1012.9;;;19.4;22
74427;BME280;62859;53.906;27.430;2023-05-01T09:21:53;1012.9;;;19.6;22
74427;BME280;62859;53.906;27.430;2023-05-01T09:26:13;1012.9;;;19.8;21.1
74427;BME280;62859;53.906;27.430;2023-05-01T09:31:21;1012.9;;;20.1;20.8
74427;BME280;62859;53.906;27.430;2023-05-01T09:36:59;1012.9;;;20.4;20.6
74427;BME280;62859;53.906;27.430;2023-05-01T09:41:23;1012.9;;;20.5;20
74427;BME280;62859;53.906;27.430;2023-05-01T09:46:20;1012.8;;;20.8;19.6
74427;BME280;62859;53.906;27.430;2023-05-01T09:51:18;1012.8;;;20.9;19.8
74427;BME280;62859;53.906;27.430;2023-05-01T09:56:59;1012.8;;;20.9;19.5
74427;BME280;62859;53.906;27.430;2023-05-01T10:01:44;1012.8;;;20.7;19.8
74427;BME280;62859;53.906;27.430;2023-05-01T10:06:35;1012.8;;;21;19.3
74427;BME280;62859;53.906;27.430;2023-05-01T10:11:13;1012.8;;;21.3;19
74427;BME280;62859;53.906;27.430;2023-05-01T10:16:48;1012.7;;;21.6;18.9
74427;BME280;62859;53.906;27.430;2023-05-01T10:21:13;1012.7;;;21.9;18.7
74427;BME280;62859;53.906;27.430;2023-05-01T10:26:37;1012.8;;;22.2;17.8
74427;BME280;62859;53.906;27.430;2023-05-01T10:31:24;1012.8;;;22.4;17.8
74427;BME280;62859;53.906;27.430;2023-05-01T10:36:26;1012.8;;;22.6;17.5
74427;BME280;62859;53.906;27.430;2023-05-01T10:42:00;1012.8;;;22.9;16.8
74427;BME280;62859;53.906;27.430;2023-05-01T10:46:49;1012.8;;;23.1;16.5
74427;BME280;62859;53.906;27.430;2023-05-01T10:51:14;1012.7;;;23.3;16.6
74427;BME280;62859;53.906;27.430;2023-05-01T10:56:58;1012.6;;;23.6;16.3
74427;BME280;62859;53.906;27.430;2023-05-01T11:01:36;1012.6;;;23.8;16.5
74427;BME280;62859;53.906;27.430;2023-05-01T11:07:12;1012.7;;;24;16.5
74427;BME280;62859;53.906;27.430;2023-05-01T11:11:46;1012.7;;;24.2;16.4
74427;BME280;62859;53.906;27.430;2023-05-01T11:16:44;1012.7;;;24;16.5
74427;BME280;62859;53.906;27.430;2023-05-01T11:21:34;1012.6;;;24;16.6
74427;BME280;62859;53.906;27.430;2023-05-01T11:26:59;1012.7;;;24.3;15.9
74427;BME280;62859;53.906;27.430;2023-05-01T11:31:59;1012.6;;;24.2;15.1
74427;BME280;62859;53.906;27.430;2023-05-01T11:36:57;1012.6;;;24.3;15.7
74427;BME280;62859;53.906;27.430;2023-05-01T11:41:25;1012.6;;;24.5;15.8
74427;BME280;62859;53.906;27.430;2023-05-01T11:46:54;1012.5;;;24.8;15.7
74427;BME280;62859;53.906;27.430;2023-05-01T11:51:50;1012.6;;;25;14.3
74427;BME280;62859;53.906;27.430;2023-05-01T11:56:43;1012.6;;;25.2;13.2
74427;BME280;62859;53.906;27.430;2023-05-01T12:01:13;1012.6;;;25.2;13
74427;BME280;62859;53.906;27.430;2023-05-01T12:06:59;1012.6;;;25.1;13
74427;BME280;62859;53.906;27.430;2023-05-01T12:11:48;1012.5;;;25.2;13.2
74427;BME280;62859;53.906;27.430;2023-05-01T12:16:13;1012.4;;;25.1;13.1
74427;BME280;62859;53.906;27.430;2023-05-01T12:21:40;1012.4;;;25.1;13.5
74427;BME280;62859;53.906;27.430;2023-05-01T12:26:44;1012.4;;;25.2;13.2
74427;BME280;62859;53.906;27.430;2023-05-01T12:31:32;1012.4;;;25.1;13
74427;BME280;62859;53.906;27.430;2023-05-01T12:36:51;1012.4;;;25.2;13.3
74427;BME280;62859;53.906;27.430;2023-05-01T12:41:50;1012.4;;;25.5;13.5
74427;BME280;62859;53.906;27.430;2023-05-01T12:46:42;1012.4;;;25.6;13.2
74427;BME280;62859;53.906;27.430;2023-05-01T12:51:44;1012.4;;;25.6;12.6
74427;BME280;62859;53.906;27.430;2023-05-01T12:56:33;1012.3;;;25.6;12.9
74427;BME280;62859;53.906;27.430;2023-05-01T13:01:11;1012.4;;;25.7;12.8
74427;BME280;62859;53.906;27.430;2023-05-01T13:06:41;1012.3;;;25.5;13.2
74427;BME280;62859;53.906;27.430;2023-05-01T13:11:41;1012.3;;;25.4;13.6
74427;BME280;62859;53.906;27.430;2023-05-01T13:16:14;1012.3;;;25.5;13.6
74427;BME280;62859;53.906;27.430;2023-05-01T13:21:48;1012.3;;;25.5;13.6
74427;BME280;62859;53.906;27.430;2023-05-01T13:26:24;1012.3;;;25.4;13.4
74427;BME280;62859;53.906;27.430;2023-05-01T13:31:41;1012.3;;;25.3;13.6
74427;BME280;62859;53.906;27.430;2023-05-01T13:36:47;1012.2;;;25.2;13.7
74427;BME280;62859;53.906;27.430;2023-05-01T13:41:31;1012.2;;;25.3;13.7
74427;BME280;62859;53.906;27.430;2023-05-01T13:47:00;1012.3;;;25.1;13.4
74427;BME280;62859;53.906;27.430;2023-05-01T13:51:27;1012.3;;;24.9;13.3
74427;BME280;62859;53.906;27.430;2023-05-01T13:56:13;1012.3;;;24.6;13.9
74427;BME280;62859;53.906;27.430;2023-05-01T14:02:00;1012.3;;;24.4;13.7
74427;BME280;62859;53.906;27.430;2023-05-01T14:06:38;1012.2;;;24;14.1
74427;BME280;62859;53.906;27.430;2023-05-01T14:11:14;1012.2;;;23.8;13.6
74427;BME280;62859;53.906;27.430;2023-05-01T14:16:22;1012.2;;;23.6;13.1
74427;BME280;62859;53.906;27.430;2023-05-01T14:21:57;1012.1;;;23.5;13.6
74427;BME280;62859;53.906;27.430;2023-05-01T14:26:16;1012.1;;;23.2;14.3
74427;BME280;62859;53.906;27.430;2023-05-01T14:32:01;1012.2;;;22.9;14.2
74427;BME280;62859;53.906;27.430;2023-05-01T14:37:00;1012.2;;;22.6;14.1
74427;BME280;62859;53.906;27.430;2023-05-01T14:41:52;1012.2;;;22.4;14.2
74427;BME280;62859;53.906;27.430;2023-05-01T14:46:32;1012.2;;;22.1;14.8
74427;BME280;62859;53.906;27.430;2023-05-01T14:51:52;1012.2;;;21.8;15.3
74427;BME280;62859;53.906;27.430;2023-05-01T14:56:46;1012.1;;;21.5;15.6
74427;BME280;62859;53.906;27.430;2023-05-01T15:01:42;1012.2;;;21.4;15.8
74427;BME280;62859;53.906;27.430;2023-05-01T15:06:14;1012.2;;;21.2;16.1
74427;BME280;62859;53.906;27.430;2023-05-01T15:11:58;1012.2;;;20.9;16.6
74427;BME280;62859;53.906;27.430;2023-05-01T15:16:48;1012.1;;;20.6;16.8
74427;BME280;62859;53.906;27.430;2023-05-01T15:21:32;1012.2;;;20.3;17.1
74427;BME280;62859;53.906;27.430;2023-05-01T15:26:50;1012.2;;;20;17.2
74427;BME280;62859;53.906;27.430;2023-05-01T15:31:44;1012.2;;;19.7;17.6
74427;BME280;62859;53.906;27.430;2023-05-01T15:36:14;1012.1;;;19.6;17.8
74427;BME280;62859;53.906;27.430;2023-05-01T15:41:50;1012.1;;;19.4;18
74427;BME280;62859;53.906;27.430;2023-05-01T15:46:50;1012.1;;;19.1;18.7
74427;BME280;62859;53.906;27.430;2023-05-01T15:51:26;1012.1;;;18.9;19.1
74427;BME280;62859;53.906;27.430;2023-05-01T15:56:34;1012.1;;;18.7;19.3
74427;BME280;62859;53.906;27.430;2023-05-01T16:01:34;1012.2;;;18.5;19.6
74427;BME280;62859;53.906;27.430;2023-05-01T16:06:26;1012.2;;;18.2;19.8
74427;BME280;62859;53.906;27.430;2023-05-01T16:11:46;1012.2;;;18.1;19.8
74427;BME280;62859;53.906;27.430;2023-05-01T16:17:00;1012.2;;;18;20.2
74427;BME280;62859;53.906;27.430;2023-05-01T16:21:38;1012.2;;;17.9;20
74427;BME280;62859;53.906;27.430;2023-05-01T16:26:50;1012.2;;;17.8;20.5
74427;BME280;62859;53.906;27.430;2023-05-01T16:31:44;1012.2;;;17.8;20.5
74427;BME280;62859;53.906;27.430;2023-05-01T16:36:58;1012.1;;;17.7;20.4
74427;BME280;62859;53.906;27.430;2023-05-01T16:42:00;1012.2;;;17.6;20.3
74427;BME280;62859;53.906;27.430;2023-05-01T16:46:26;1012.2;;;17.5;20.5
74427;BME280;62859;53.906;27.430;2023-05-01T16:51:58;1012.2;;;17.4;20.5
74427;BME280;62859;53.906;27.430;2023-05-01T16:57:00;1012.2;;;17.3;20.7
74427;BME280;62859;53.906;27.430;2023-05-01T17:01:26;1012.2;;;17.3;21
74427;BME280;62859;53.906;27.430;2023-05-01T17:06:48;1012.3;;;17.3;20.8
74427;BME280;62859;53.906;27.430;2023-05-01T17:11:36;1012.3;;;17.2;20.9
74427;BME280;62859;53.906;27.430;2023-05-01T17:16:14;1012.3;;;17.1;20.9
74427;BME280;62859;53.906;27.430;2023-05-01T17:21:50;1012.3;;;16.9;21.2
74427;BME280;62859;53.906;27.430;2023-05-01T17:27:00;1012.3;;;16.8;21.5
74427;BME280;62859;53.906;27.430;2023-05-01T17:31:36;1012.4;;;16.7;21.6
74427;BME280;62859;53.906;27.430;2023-05-01T17:36:32;1012.4;;;16.6;21.7
74427;BME280;62859;53.906;27.430;2023-05-01T17:42:00;1012.5;;;16.5;21.6
74427;BME280;62859;53.906;27.430;2023-05-01T17:46:24;1012.5;;;16.5;21.7
74427;BME280;62859;53.906;27.430;2023-05-01T17:51:32;1012.6;;;16.4;21.5
74427;BME280;62859;53.906;27.430;2023-05-01T17:56:36;1012.6;;;16.3;21.5
74427;BME280;62859;53.906;27.430;2023-05-01T18:02:02;1012.7;;;16.2;21.8
74427;BME280;62859;53.906;27.430;2023-05-01T18:06:46;1012.7;;;16.1;22
74427;BME280;62859;53.906;27.430;2023-05-01T18:11:24;1012.8;;;16;22.2
74427;BME280;62859;53.906;27.430;2023-05-01T18:16:38;1012.8;;;15.9;22.4
74427;BME280;62859;53.906;27.430;2023-05-01T18:21:50;1012.9;;;15.9;22.8
74427;BME280;62859;53.906;27.430;2023-05-01T18:26:24;1012.9;;;15.8;23.2
74427;BME280;62859;53.906;27.430;2023-05-01T18:31:26;1012.9;;;15.7;23.6
74427;BME280;62859;53.906;27.430;2023-05-01T18:36:26;1012.9;;;15.6;23.9
74427;BME280;62859;53.906;27.430;2023-05-01T18:41:32;1013;;;15.5;24.5
74427;BME280;62859;53.906;27.430;2023-05-01T18:47:00;1012.9;;;15.4;24.5
74427;BME280;62859;53.906;27.430;2023-05-01T18:51:50;1013;;;15.4;24.5
74427;BME280;62859;53.906;27.430;2023-05-01T18:56:26;1013;;;15.3;24.9
74427;BME280;62859;53.906;27.430;2023-05-01T19:01:58;1013;;;15.1;25
74427;BME280;62859;53.906;27.430;2023-05-01T19:06:38;1013;;;15.1;25.4
74427;BME280;62859;53.906;27.430;2023-05-01T19:11:14;1013;;;15;25.8
74427;BME280;62859;53.906;27.430;2023-05-01T19:16:48;1013;;;14.9;25.6
74427;BME280;62859;53.906;27.430;2023-05-01T19:22:02;1013.1;;;14.8;26
74427;BME280;62859;53.906;27.430;2023-05-01T19:26:36;1013.1;;;14.8;26.3
74427;BME280;62859;53.906;27.430;2023-05-01T19:31:58;1013.1;;;14.7;26.4
74427;BME280;62859;53.906;27.430;2023-05-01T19:37:00;1013.1;;;14.6;26.1
74427;BME280;62859;53.906;27.430;2023-05-01T19:41:50;1013.1;;;14.6;26.2
74427;BME280;62859;53.906;27.430;2023-05-01T19:46:14;1013.1;;;14.6;26
74427;BME280;62859;53.906;27.430;2023-05-01T19:51:16;1013.1;;;14.6;25.9
74427;BME280;62859;53.906;27.430;2023-05-01T19:56:48;1013;;;14.5;26
74427;BME280;62859;53.906;27.430;2023-05-01T20:01:44;1013.1;;;14.5;26.1
74427;BME280;62859;53.906;27.430;2023-05-01T20:06:14;1013.1;;;14.4;26.4
74427;BME280;62859;53.906;27.430;2023-05-01T20:11:58;1013.1;;;14.4;26.3
74427;BME280;62859;53.906;27.430;2023-05-01T20:16:48;1013.1;;;14.3;26.4
74427;BME280;62859;53.906;27.430;2023-05-01T20:21:34;1013.1;;;14.2;26.5
74427;BME280;62859;53.906;27.430;2023-05-01T20:26:26;1013.1;;;14.2;26.5
74427;BME280;62859;53.906;27.430;2023-05-01T20:31:44;1013.1;;;14.1;26.4
74427;BME280;62859;53.906;27.430;2023-05-01T20:36:14;1013;;;14;26.6
74427;BME280;62859;53.906;27.430;2023-05-01T20:41:52;1013;;;13.9;27
74427;BME280;62859;53.906;27.430;2023-05-01T20:46:52;1013;;;13.9;27.4
74427;BME280;62859;53.906;27.430;2023-05-01T20:51:20;1013;;;13.8;27.9
74427;BME280;62859;53.906;27.430;2023-05-01T20:57:00;1013.1;;;13.8;28.3
74427;BME280;62859;53.906;27.430;2023-05-01T21:01:36;1013.1;;;13.8;28.4
74427;BME280;62859;53.906;27.430;2023-05-01T21:06:14;1013.1;;;13.8;28.2
74427;BME280;62859;53.906;27.430;2023-05-01T21:11:34;1013.1;;;13.8;28.5
74427;BME280;62859;53.906;27.430;2023-05-01T21:16:38;1013.1;;;13.7;29
74427;BME280;62859;53.906;27.430;2023-05-01T21:21:38;1013;;;13.7;29
74427;BME280;62859;53.906;27.430;2023-05-01T21:26:48;1013;;;13.6;29
74427;BME280;62859;53.906;27.430;2023-05-01T21:32:00;1013;;;13.6;29
74427;BME280;62859;53.906;27.430;2023-05-01T21:36:52;1013.1;;;13.5;29.3
74427;BME280;62859;53.906;27.430;2023-05-01T21:41:30;1013.2;;;13.5;29.4
74427;BME280;62859;53.906;27.430;2023-05-01T21:46:14;1013.3;;;13.5;29.3
74427;BME280;62859;53.906;27.430;2023-05-01T21:52:00;1013.2;;;13.5;29.4
74427;BME280;62859;53.906;27.430;2023-05-01T21:56:52;1013.3;;;13.5;29.3
74427;BME280;62859;53.906;27.430;2023-05-01T22:01:14;1013.2;;;13.4;29.5
74427;BME280;62859;53.906;27.430;2023-05-01T22:07:00;1013.3;;;13.4;29.7
74427;BME280;62859;53.906;27.430;2023-05-01T22:11:52;1013.2;;;13.3;29.8
74427;BME280;62859;53.906;27.430;2023-05-01T22:16:26;1013.2;;;13.2;30
74427;BME280;62859;53.906;27.430;2023-05-01T22:21:34;1013.3;;;13.3;29.9
74427;BME280;62859;53.906;27.430;2023-05-01T22:26:58;1013.3;;;13.3;29.9
74427;BME280;62859;53.906;27.430;2023-05-01T22:31:14;1013.3;;;13.3;30
74427;BME280;62859;53.906;27.430;2023-05-01T22:37:00;1013.3;;;13.1;30.4
74427;BME280;62859;53.906;27.430;2023-05-01T22:42:00;1013.3;;;13;30.6
74427;BME280;62859;53.906;27.430;2023-05-01T22:46:52;1013.4;;;12.9;30.7
74427;BME280;62859;53.906;27.430;2023-05-01T22:51:20;1013.4;;;12.8;30.7
74427;BME280;62859;53.906;27.430;2023-05-01T22:56:52;1013.4;;;12.8;30.7
74427;BME280;62859;53.906;27.430;2023-05-01T23:01:48;1013.4;;;12.6;31
74427;BME280;62859;53.906;27.430;2023-05-01T23:06:46;1013.4;;;12.6;31.2
74427;BME280;62859;53.906;27.430;2023-05-01T23:11:40;1013.4;;;12.5;31.3
74427;BME280;62859;53.906;27.430;2023-05-01T23:16:48;1013.4;;;12.5;31.4
74427;BME280;62859;53.906;27.430;2023-05-01T23:21:48;1013.4;;;12.4;31.6
74427;BME280;62859;53.906;27.430;2023-05-01T23:26:26;1013.4;;;12.3;31.9
74427;BME280;62859;53.906;27.430;2023-05-01T23:31:26;1013.4;;;12.2;32
74427;BME280;62859;53.906;27.430;2023-05-01T23:36:38;1013.4;;;12.1;32.3
74427;BME280;62859;53.906;27.430;2023-05-01T23:41:26;1013.3;;;12.1;32.4
74427;BME280;62859;53.906;27.430;2023-05-01T23:46:36;1013.3;;;12;32.6
74427;BME280;62859;53.906;27.430;2023-05-01T23:51:36;1013.3;;;12.1;32.4
74427;BME280;62859;53.906;27.430;2023-05-01T23:56:24;1013.3;;;12;32.7
